Terminal Aerodrome Forecast
Issued by NWS Grand Forks, ND

Home | Current Version | Previous Version | Text Only | Print | Product List | Glossary On
Versions: 1 2 3 4 5 6 7 8 9 10 11 12 13
000
FTUS43 KFGF 181700
TAFFAR
TAF
KFAR 181728Z 1818/1918 16010KT P6SM OVC070
     FM190100 16009KT P6SM OVC015
     FM191500 16010KT P6SM OVC009=

USA.gov is the U.S. government's official web portal to all federal, state and local government web resources and services.